Valdemorillo, Spain
Current Conditions -  °F | °C
As of 3:00 PM on Thursday 18 Dec 2014 (Local Time) from LEVS Reporting Station
Clear Clear  
Wind Chill: 15°   Ceiling: Unl
Heat Index: 15°   Visibility: 6mi
Dew Point:   Wind: 2mph
Humidity: 59%   Direction: NA
Pressure: 30.33"   Gusts: NA
Location:  40.5°N, 4.07°W
Report Text: LEVS 181400Z VRB02KT CAVOK 15/07 Q1027
Loading
Personal Weather Stations






























Interactive Weather Map New forecast layout! Learn more

10-Day Weather Forecast

Advertisements
Track Severe Weather on mobile